Terminal Aerodrome Forecast
Issued by NWS

Home | Current Version | Previous Version | Text Only | Print | Product List | Glossary On
Versions: 1 2 3 4 5 6 7 8 9 10 11 12 13 14 15
000
FTUS42 KMLB 242325
TAFISM
TAF
KISM 242325Z 2500/2524 08010KT P6SM FEW045 SCT250
     FM250400 VRB03KT P6SM FEW060
     FM251400 17010KT P6SM SCT035
     FM251600 19011G18KT P6SM VCSH BKN035
     FM251900 23012G19KT P6SM VCSH BKN035
      AMD NOT SKED 2503/2512=

USA.gov is the U.S. government's official web portal to all federal, state and local government web resources and services.